8A7 weather

Public forecast

Using degrees Fahrenheit for public forecast. Weather courtesy of forecast.io.

Closest aviation weather report (METAR) to Twin Lakes Airport

Closest report is Davidson County Airport, 11.0 nm (20.3 km) SE. Retrieved 2020/08/14 12:55 UTC (6 minutes ago):

KEXX 141255Z AUTO 09003KT 4SM BR OVC004 24/24 A3001 RMK AO2 T02350235

Closest aviation forecast (TAF) to Twin Lakes Airport

Closest forecast is Smith Reynolds Airport, 17.4 nm (32.2 km) NE. Retrieved 2020/08/14 12:22 UTC (39 minutes ago):

TAF KINT 141120Z 1412/1512 02003KT 6SM BR BKN005 TEMPO 1412/1413 4SM BR OVC003 FM141400 05005KT P6SM VCSH BKN008 FM141500 04004KT P6SM VCSH SCT008 BKN015 FM141700 06004KT P6SM VCSH SCT025 BKN040 BKN250 TEMPO 1418/1422 VRB15G25KT 2SM -TSRA BKN030 BKN045CB OVC100 FM150900 08003KT 5SM -SHRA BKN008 OVC015